Time;durP1;ratioP1;P1;durP2;ratioP2;P2;SDS_P1;SDS_P2;PMS_P1;PMS_P2;Temp;Humidity;BMP_temperature;BMP_pressure;BME280_temperature;BME280_humidity;BME280_pressure;Samples;Min_cycle;Max_cycle;Signal;HPM_P1;HPM_P2
2022/02/13 00:01:48;;;;;;;7.82;2.30;;;;;;;0.55;100.00;101220.56;7392572;19;20198;-53
2022/02/13 00:04:17;;;;;;;8.38;3.05;;;;;;;0.57;100.00;101226.69;7397121;19;20131;-50
2022/02/13 00:06:47;;;;;;;8.95;2.63;;;;;;;0.61;100.00;101230.41;7393060;19;20204;-49
2022/02/13 00:09:19;;;;;;;5.70;2.60;;;;;;;0.69;100.00;101215.81;7394749;19;20169;-51
2022/02/13 00:11:48;;;;;;;6.30;2.15;;;;;;;0.74;100.00;101217.13;7394117;19;20667;-52
2022/02/13 00:14:18;;;;;;;8.23;2.83;;;;;;;0.75;100.00;101221.44;7397830;19;20131;-53
2022/02/13 00:16:47;;;;;;;5.90;2.20;;;;;;;0.77;100.00;101219.97;7393981;19;20197;-49
2022/02/13 00:19:17;;;;;;;6.10;1.45;;;;;;;0.83;100.00;101214.50;7395277;19;20159;-49
2022/02/13 00:21:52;;;;;;;6.95;2.10;;;;;;;0.83;100.00;101222.13;7394345;19;20200;-53
2022/02/13 00:24:24;;;;;;;4.47;2.40;;;;;;;0.88;100.00;101215.81;7397685;19;20194;-52
2022/02/13 00:26:54;;;;;;;7.95;2.40;;;;;;;0.91;100.00;101219.53;7393587;19;20540;-47
2022/02/13 00:29:27;;;;;;;5.40;2.53;;;;;;;1.01;100.00;101223.75;7395424;19;20173;-56
2022/02/13 00:31:56;;;;;;;6.95;2.88;;;;;;;1.00;100.00;101228.69;7391701;19;20545;-50
2022/02/13 00:34:26;;;;;;;4.32;1.60;;;;;;;1.05;100.00;101230.00;7397197;19;20127;-50
2022/02/13 00:36:58;;;;;;;4.68;1.92;;;;;;;1.04;100.00;101228.22;7397566;19;20199;-48
2022/02/13 00:39:31;;;;;;;6.20;2.78;;;;;;;1.07;100.00;101228.47;7394553;19;20162;-49
2022/02/13 00:42:00;;;;;;;6.13;2.65;;;;;;;0.90;100.00;101214.28;7393519;19;20194;-47
2022/02/13 00:44:30;;;;;;;8.88;3.05;;;;;;;1.02;100.00;101222.13;7396944;19;20130;-50
2022/02/13 00:46:59;;;;;;;6.55;1.92;;;;;;;1.01;100.00;101215.22;7393979;19;20210;-52
2022/02/13 00:49:29;;;;;;;6.43;2.03;;;;;;;0.91;100.00;101201.72;7394556;19;20163;-51
2022/02/13 00:51:59;;;;;;;4.53;2.08;;;;;;;0.92;100.00;101202.63;7393382;19;20641;-53
2022/02/13 00:54:33;;;;;;;4.95;1.52;;;;;;;0.97;100.00;101193.75;7396990;19;20171;-53
2022/02/13 00:57:03;;;;;;;6.70;1.85;;;;;;;0.97;100.00;101190.31;7394242;19;20190;-50
2022/02/13 00:59:32;;;;;;;7.80;1.38;;;;;;;0.88;100.00;101193.81;7394342;19;20155;-47
2022/02/13 01:02:02;;;;;;;11.75;1.75;;;;;;;0.86;100.00;101185.19;7393740;19;20197;-54
2022/02/13 01:04:31;;;;;;;6.68;2.28;;;;;;;0.91;100.00;101185.56;7396609;19;20123;-50
2022/02/13 01:07:01;;;;;;;4.65;2.33;;;;;;;0.89;100.00;101185.47;7389037;19;20186;-56
2022/02/13 01:09:33;;;;;;;3.80;1.38;;;;;;;0.83;100.00;101182.38;7394421;19;20170;-55
2022/02/13 01:12:02;;;;;;;9.18;2.00;;;;;;;0.87;100.00;101169.19;7388735;19;20197;-53
2022/02/13 01:14:32;;;;;;;2.88;1.60;;;;;;;0.83;100.00;101176.41;7396720;19;20491;-52
2022/02/13 01:17:02;;;;;;;4.57;1.95;;;;;;;0.82;100.00;101179.72;7394989;19;20642;-54
2022/02/13 01:19:31;;;;;;;4.93;2.05;;;;;;;0.80;100.00;101188.09;7394088;19;20222;-52
2022/02/13 01:22:04;;;;;;;5.28;1.85;;;;;;;0.79;100.00;101176.16;7392702;19;20190;-52
2022/02/13 01:24:36;;;;;;;5.05;1.77;;;;;;;0.79;100.00;101172.69;7396533;19;20131;-55
2022/02/13 01:27:06;;;;;;;9.63;3.20;;;;;;;0.78;100.00;101164.19;7393643;19;20657;-50
2022/02/13 01:29:36;;;;;;;8.13;2.47;;;;;;;0.77;100.00;101164.06;7393752;19;20165;-57
2022/02/13 01:32:07;;;;;;;4.53;1.63;;;;;;;0.74;100.00;101149.44;7392271;19;20191;-49
2022/02/13 01:34:37;;;;;;;8.27;2.97;;;;;;;0.79;100.00;101140.59;7396521;19;20129;-54
2022/02/13 01:37:07;;;;;;;2.85;1.60;;;;;;;0.74;100.00;101144.38;7392236;19;20588;-54
2022/02/13 01:39:39;;;;;;;8.38;3.20;;;;;;;0.78;100.00;101145.53;7395197;19;20166;-54
2022/02/13 01:42:09;;;;;;;6.40;2.50;;;;;;;0.67;100.00;101130.22;7392202;19;20190;-53
2022/02/13 01:44:39;;;;;;;7.30;3.15;;;;;;;0.75;100.00;101127.44;7396236;19;20611;-48
2022/02/13 01:47:09;;;;;;;5.15;2.05;;;;;;;0.72;100.00;101137.38;7392758;19;20190;-47
2022/02/13 01:49:39;;;;;;;4.43;1.77;;;;;;;0.67;100.00;101145.47;7394449;19;20159;-52
2022/02/13 01:52:09;;;;;;;4.18;1.70;;;;;;;0.63;100.00;101153.59;7391075;19;20197;-50
2022/02/13 01:54:42;;;;;;;6.82;2.80;;;;;;;0.59;100.00;101150.63;7395911;19;20131;-52
2022/02/13 01:57:12;;;;;;;6.70;2.40;;;;;;;0.61;100.00;101151.66;7392706;19;20194;-53
2022/02/13 01:59:42;;;;;;;6.47;2.47;;;;;;;0.63;100.00;101129.81;7394220;19;20626;-56
2022/02/13 02:02:12;;;;;;;5.80;2.40;;;;;;;0.58;100.00;101119.28;7394380;19;20196;-50
2022/02/13 02:04:42;;;;;;;8.38;2.33;;;;;;;0.63;100.00;101117.13;7395716;19;20147;-51
2022/02/13 02:07:12;;;;;;;7.18;3.33;;;;;;;0.65;100.00;101120.69;7390151;19;20660;-53
2022/02/13 02:09:50;;;;;;;3.55;2.15;;;;;;;0.57;100.00;101114.94;7394057;19;20174;-49
2022/02/13 02:12:19;;;;;;;7.68;2.47;;;;;;;0.61;100.00;101114.44;7390152;19;20193;-48
2022/02/13 02:14:49;;;;;;;5.38;2.00;;;;;;;0.59;100.00;101110.88;7395670;19;20745;-48
2022/02/13 02:17:19;;;;;;;7.10;3.17;;;;;;;0.60;100.00;101117.75;7392174;19;20209;-48
2022/02/13 02:19:48;;;;;;;4.93;1.95;;;;;;;0.55;100.00;101108.81;7393651;19;20489;-52
2022/02/13 02:22:18;;;;;;;10.15;3.55;;;;;;;0.55;100.00;101088.50;7392354;19;20191;-52
2022/02/13 02:24:50;;;;;;;5.53;2.67;;;;;;;0.60;100.00;101083.81;7395182;19;20130;-47
2022/02/13 02:27:20;;;;;;;6.28;2.30;;;;;;;0.56;100.00;101087.75;7391532;19;20186;-56
2022/02/13 02:29:49;;;;;;;6.35;2.70;;;;;;;0.49;100.00;101087.97;7395605;19;20234;-49
2022/02/13 02:32:19;;;;;;;7.20;2.90;;;;;;;0.52;100.00;101078.09;7391686;19;20201;-51
2022/02/13 02:34:49;;;;;;;4.82;1.90;;;;;;;0.52;100.00;101067.94;7394614;19;20131;-52
2022/02/13 02:37:18;;;;;;;7.90;2.25;;;;;;;0.47;100.00;101076.78;7391597;19;20196;-47
2022/02/13 02:39:50;;;;;;;6.65;2.47;;;;;;;0.46;100.00;101067.41;7392785;19;20165;-52
2022/02/13 02:42:20;;;;;;;5.63;2.65;;;;;;;0.49;100.00;101060.03;7391519;19;20190;-52
2022/02/13 02:44:49;;;;;;;6.40;3.65;;;;;;;0.51;100.00;101056.88;7394675;19;20127;-52
2022/02/13 02:47:19;;;;;;;5.70;2.25;;;;;;;0.48;100.00;101056.63;7389837;19;20250;-51
2022/02/13 02:49:48;;;;;;;7.90;3.15;;;;;;;0.55;100.00;101047.00;7392842;19;20173;-55
2022/02/13 02:52:19;;;;;;;11.27;4.10;;;;;;;0.50;100.00;101047.47;7382739;19;20198;-49
2022/02/13 02:54:51;;;;;;;7.85;3.00;;;;;;;0.48;100.00;101046.47;7394500;19;20138;-52
2022/02/13 02:57:21;;;;;;;12.93;3.45;;;;;;;0.45;100.00;101051.25;7391364;19;20190;-52
2022/02/13 02:59:50;;;;;;;6.05;2.33;;;;;;;0.51;100.00;101038.22;7392732;19;20168;-49
2022/02/13 03:02:20;;;;;;;9.45;3.58;;;;;;;0.48;100.00;101035.41;7390632;19;20197;-52
2022/02/13 03:04:49;;;;;;;8.48;3.92;;;;;;;0.48;100.00;101025.25;7394450;19;20187;-54
2022/02/13 03:07:19;;;;;;;5.68;1.98;;;;;;;0.49;100.00;101022.84;7390519;19;20257;-55
2022/02/13 03:09:51;;;;;;;9.07;3.80;;;;;;;0.51;100.00;101023.00;7392415;19;20222;-55
2022/02/13 03:12:20;;;;;;;9.88;3.15;;;;;;;0.53;100.00;101024.00;7392636;19;20189;-53
2022/02/13 03:14:50;;;;;;;11.20;2.47;;;;;;;0.55;100.00;101016.53;7393682;19;20582;-53
2022/02/13 03:17:19;;;;;;;9.50;3.72;;;;;;;0.57;100.00;101000.66;7390547;19;20530;-49
2022/02/13 03:19:49;;;;;;;7.82;3.20;;;;;;;0.55;100.00;100998.75;7391729;19;20169;-52
2022/02/13 03:22:18;;;;;;;7.32;3.67;;;;;;;0.55;100.00;100992.00;7385147;19;20205;-53
2022/02/13 03:24:47;;;;;;;7.07;3.45;;;;;;;0.50;100.00;100998.34;7393336;19;20153;-50
2022/02/13 03:27:19;;;;;;;12.60;3.10;;;;;;;0.56;100.00;100990.38;7390590;19;20269;-49
2022/02/13 03:29:49;;;;;;;10.65;4.32;;;;;;;0.78;100.00;100980.41;7394055;19;20174;-51
2022/02/13 03:32:18;;;;;;;7.32;3.22;;;;;;;0.72;100.00;100977.34;7390103;19;20672;-50
2022/02/13 03:34:48;;;;;;;8.95;3.50;;;;;;;0.78;100.00;100980.41;7393187;19;20484;-52
2022/02/13 03:37:17;;;;;;;10.23;3.33;;;;;;;0.82;100.00;100976.47;7386540;19;20257;-49
2022/02/13 03:39:47;;;;;;;8.50;3.65;;;;;;;0.77;100.00;100973.53;7393916;19;20939;-53
2022/02/13 03:42:16;;;;;;;12.35;4.50;;;;;;;0.83;100.00;100979.13;7392525;19;20194;-50
2022/02/13 03:44:49;;;;;;;10.35;3.30;;;;;;;0.78;100.00;100977.84;7392717;19;20606;-52
2022/02/13 03:47:18;;;;;;;7.85;3.30;;;;;;;0.73;100.00;100977.47;7389777;19;20190;-54
2022/02/13 03:49:48;;;;;;;4.75;2.42;;;;;;;0.77;100.00;100976.06;7391057;19;20162;-52
2022/02/13 03:52:17;;;;;;;8.40;3.28;;;;;;;0.80;100.00;100979.75;7385834;19;20190;-49
2022/02/13 03:54:47;;;;;;;9.43;3.53;;;;;;;0.80;100.00;100979.75;7392610;19;20135;-52
2022/02/13 03:57:16;;;;;;;7.38;2.70;;;;;;;0.77;100.00;100982.03;7389296;19;20186;-54
2022/02/13 03:59:48;;;;;;;9.38;2.95;;;;;;;0.76;100.00;100987.88;7390137;19;20624;-52
2022/02/13 04:02:18;;;;;;;7.90;3.85;;;;;;;0.80;100.00;100979.75;7388498;19;20286;-52
2022/02/13 04:04:47;;;;;;;9.38;3.30;;;;;;;0.81;100.00;100988.25;7392544;19;20466;-53
2022/02/13 04:07:17;;;;;;;7.32;2.80;;;;;;;0.71;100.00;100999.28;7389295;19;20194;-50
2022/02/13 04:09:46;;;;;;;5.90;2.85;;;;;;;0.76;100.00;100992.94;7390352;19;20630;-52
2022/02/13 04:12:17;;;;;;;17.23;4.05;;;;;;;0.87;100.00;100990.44;7387628;19;20266;-51
2022/02/13 04:14:49;;;;;;;7.30;4.00;;;;;;;0.79;100.00;100998.31;7391863;19;20133;-56
2022/02/13 04:17:18;;;;;;;6.18;3.20;;;;;;;0.82;100.00;100990.03;7389043;19;20186;-53
2022/02/13 04:19:48;;;;;;;4.03;1.52;;;;;;;0.72;100.00;100984.94;7390151;19;20725;-49
2022/02/13 04:22:19;;;;;;;9.52;3.75;;;;;;;0.71;100.00;100973.00;7389666;19;20203;-54
2022/02/13 04:24:49;;;;;;;10.63;4.60;;;;;;;0.74;100.00;100968.19;7391878;19;20127;-54
2022/02/13 04:27:18;;;;;;;9.43;2.92;;;;;;;0.77;100.00;100963.38;7388345;19;20194;-51
2022/02/13 04:29:50;;;;;;;11.88;3.50;;;;;;;0.72;100.00;100973.13;7389598;19;20242;-53
2022/02/13 04:32:20;;;;;;;10.30;3.78;;;;;;;0.86;100.00;100970.88;7388470;19;20194;-51
2022/02/13 04:34:49;;;;;;;3.45;1.88;;;;;;;0.65;100.00;100984.44;7396808;19;20127;-54
2022/02/13 04:37:18;;;;;;;8.93;3.17;;;;;;;0.69;100.00;100982.13;7395601;19;20187;-56
2022/02/13 04:39:48;;;;;;;9.30;3.78;;;;;;;0.59;100.00;100978.81;7396512;19;20163;-49
2022/02/13 04:42:17;;;;;;;18.58;3.78;;;;;;;0.55;100.00;100986.94;7390295;19;20646;-51
2022/02/13 04:44:49;;;;;;;7.82;2.42;;;;;;;0.43;100.00;100973.19;7398361;19;20127;-52
2022/02/13 04:47:19;;;;;;;10.50;3.40;;;;;;;0.48;100.00;100965.22;7395174;19;20194;-54
2022/02/13 04:49:48;;;;;;;9.35;4.00;;;;;;;0.44;100.00;100952.09;7396160;19;20159;-53
2022/02/13 04:52:18;;;;;;;10.65;4.10;;;;;;;0.40;100.00;100941.69;7394370;19;20190;-55
2022/02/13 04:54:47;;;;;;;7.50;3.53;;;;;;;0.36;100.00;100933.69;7398113;19;20138;-50
2022/02/13 04:57:17;;;;;;;10.05;3.22;;;;;;;0.29;100.00;100939.00;7393486;19;20216;-53
2022/02/13 04:59:46;;;;;;;4.97;2.15;;;;;;;0.28;100.00;100945.72;7396195;19;20163;-52
2022/02/13 05:02:19;;;;;;;9.98;3.58;;;;;;;0.31;100.00;100945.97;7391703;19;20274;-51
2022/02/13 05:04:48;;;;;;;10.95;4.10;;;;;;;0.26;100.00;100943.03;7401874;19;20127;-47
2022/02/13 05:07:18;;;;;;;11.18;4.55;;;;;;;0.25;100.00;100935.28;7394469;19;20190;-50
2022/02/13 05:09:47;;;;;;;5.82;2.63;;;;;;;0.21;100.00;100931.59;7395727;19;20519;-50
2022/02/13 05:12:17;;;;;;;7.72;2.65;;;;;;;0.19;100.00;100935.66;7393677;19;20190;-51
2022/02/13 05:14:47;;;;;;;8.32;3.25;;;;;;;0.19;100.00;100929.69;7397444;19;20131;-49
2022/02/13 05:17:21;;;;;;;7.00;2.10;;;;;;;0.18;100.00;100938.06;7394303;19;20187;-55
2022/02/13 05:19:50;;;;;;;6.22;2.90;;;;;;;0.20;100.00;100932.34;7395474;19;20158;-53
2022/02/13 05:22:20;;;;;;;7.82;3.63;;;;;;;0.19;100.00;100934.75;7392050;19;20261;-53
2022/02/13 05:24:49;;;;;;;7.65;3.38;;;;;;;0.20;100.00;100928.94;7397487;19;20483;-52
2022/02/13 05:27:19;;;;;;;9.55;3.78;;;;;;;0.16;100.00;100919.28;7391906;19;20194;-53
2022/02/13 05:29:48;;;;;;;4.65;2.80;;;;;;;0.05;100.00;100916.69;7397912;19;20170;-51
2022/02/13 05:32:20;;;;;;;10.15;4.10;;;;;;;0.05;100.00;100915.81;7393750;19;20194;-50
2022/02/13 05:34:50;;;;;;;9.25;2.40;;;;;;;0.01;100.00;100919.75;7396925;19;20127;-50
2022/02/13 05:37:19;;;;;;;5.97;2.92;;;;;;;0.10;100.00;100915.44;7396548;19;20190;-50
2022/02/13 05:39:49;;;;;;;10.32;4.05;;;;;;;0.04;100.00;100914.91;7399717;19;20584;-51
2022/02/13 05:42:18;;;;;;;9.20;3.60;;;;;;;-0.01;100.00;100911.09;7391809;19;20190;-49
2022/02/13 05:44:48;;;;;;;6.68;3.58;;;;;;;-0.01;100.00;100916.16;7395312;19;20133;-49
2022/02/13 05:47:17;;;;;;;8.05;3.92;;;;;;;0.00;100.00;100923.03;7390802;19;20194;-48
2022/02/13 05:49:50;;;;;;;7.95;3.67;;;;;;;-0.02;100.00;100922.00;7398643;19;20158;-50
2022/02/13 05:52:19;;;;;;;13.48;5.75;;;;;;;-0.05;100.00;100914.13;7392424;19;20197;-50
2022/02/13 05:54:49;;;;;;;5.10;1.85;;;;;;;-0.05;100.00;100911.59;7398136;19;20151;-49
2022/02/13 05:57:18;;;;;;;8.18;3.30;;;;;;;-0.02;100.00;100899.16;7392886;19;20190;-50
2022/02/13 05:59:48;;;;;;;10.80;4.70;;;;;;;0.05;100.00;100901.47;7394269;19;20622;-54
2022/02/13 06:02:18;;;;;;;9.25;3.63;;;;;;;0.09;100.00;100910.22;7388627;19;20193;-50
2022/02/13 06:04:50;;;;;;;6.60;3.17;;;;;;;0.01;100.00;100909.59;7395829;19;20195;-53
2022/02/13 06:07:19;;;;;;;6.82;3.42;;;;;;;0.03;100.00;100910.59;7392680;19;20190;-56
2022/02/13 06:09:50;;;;;;;10.02;4.80;;;;;;;0.06;100.00;100903.25;7393806;19;20187;-52
2022/02/13 06:12:19;;;;;;;8.50;3.60;;;;;;;-0.02;100.00;100904.25;7391361;19;20650;-47
2022/02/13 06:14:51;;;;;;;6.85;2.85;;;;;;;0.05;100.00;100911.63;7395652;19;20526;-48
2022/02/13 06:17:20;;;;;;;8.73;3.47;;;;;;;0.16;100.00;100906.59;7393516;19;20202;-49
2022/02/13 06:19:52;;;;;;;6.80;3.70;;;;;;;0.04;100.00;100904.78;7394413;19;20162;-55
2022/02/13 06:22:22;;;;;;;8.10;3.70;;;;;;;0.12;100.00;100900.38;7390610;19;20201;-56
2022/02/13 06:24:51;;;;;;;6.80;3.45;;;;;;;0.05;100.00;100898.94;7395485;19;20193;-56
2022/02/13 06:27:21;;;;;;;6.40;3.53;;;;;;;0.01;100.00;100909.59;7393435;19;20193;-55
2022/02/13 06:29:50;;;;;;;6.43;3.17;;;;;;;0.00;100.00;100902.75;7394260;19;20159;-50
2022/02/13 06:32:20;;;;;;;4.55;2.00;;;;;;;0.01;100.00;100909.59;7388780;19;20190;-56
2022/02/13 06:34:49;;;;;;;12.23;4.28;;;;;;;0.07;100.00;100910.13;7394829;19;20134;-52
2022/02/13 06:37:21;;;;;;;10.90;4.18;;;;;;;0.07;100.00;100897.44;7391605;19;20261;-50
2022/02/13 06:39:51;;;;;;;10.50;3.85;;;;;;;0.12;100.00;100908.84;7393140;19;20158;-52
2022/02/13 06:42:21;;;;;;;8.88;3.08;;;;;;;0.01;100.00;100909.59;7390318;19;20193;-52
2022/02/13 06:44:50;;;;;;;6.65;3.10;;;;;;;-0.02;100.00;100917.84;7395012;19;20190;-54
2022/02/13 06:47:20;;;;;;;7.72;3.08;;;;;;;-0.04;100.00;100913.38;7391289;19;20649;-53
2022/02/13 06:49:49;;;;;;;6.85;3.35;;;;;;;-0.02;100.00;100914.38;7392901;19;20171;-51
2022/02/13 06:52:21;;;;;;;11.82;3.40;;;;;;;-0.01;100.00;100917.06;7390147;19;20194;-49
2022/02/13 06:54:51;;;;;;;9.32;3.72;;;;;;;-0.06;100.00;100908.16;7396975;19;20138;-51
2022/02/13 06:57:20;;;;;;;7.47;3.33;;;;;;;-0.05;100.00;100909.94;7392591;19;20201;-50
2022/02/13 06:59:54;;;;;;;16.35;3.50;;;;;;;-0.03;100.00;100915.16;7395895;19;20190;-48
2022/02/13 07:02:24;;;;;;;9.65;4.05;;;;;;;-0.09;100.00;100904.47;7389523;19;20532;-51
2022/02/13 07:04:53;;;;;;;8.10;3.03;;;;;;;-0.06;100.00;100904.75;7394039;19;20131;-53
2022/02/13 07:07:25;;;;;;;11.23;5.30;;;;;;;0.06;100.00;100903.25;7389836;19;20190;-49
2022/02/13 07:09:55;;;;;;;8.27;3.83;;;;;;;-0.04;100.00;100895.63;7392269;19;20162;-50
2022/02/13 07:12:24;;;;;;;11.07;4.03;;;;;;;-0.05;100.00;100883.69;7390309;19;20194;-51
2022/02/13 07:14:54;;;;;;;16.83;3.85;;;;;;;-0.03;100.00;100890.69;7393769;19;20194;-53
2022/02/13 07:17:24;;;;;;;8.88;3.70;;;;;;;-0.05;100.00;100893.84;7390355;19;20197;-53
2022/02/13 07:19:54;;;;;;;9.38;4.60;;;;;;;-0.04;100.00;100893.94;7392461;19;20165;-50
2022/02/13 07:22:26;;;;;;;14.43;4.40;;;;;;;-0.03;100.00;100893.22;7388606;19;20186;-54
2022/02/13 07:24:56;;;;;;;6.20;2.85;;;;;;;-0.05;100.00;100891.31;7393384;19;20145;-53
2022/02/13 07:27:25;;;;;;;7.05;2.30;;;;;;;-0.06;100.00;100887.00;7393304;19;20182;-51
2022/02/13 07:29:54;;;;;;;11.82;3.42;;;;;;;0.01;100.00;100883.31;7391630;19;20163;-53
2022/02/13 07:32:24;;;;;;;13.25;3.63;;;;;;;0.00;100.00;100874.84;7393644;19;20535;-50
2022/02/13 07:34:53;;;;;;;8.45;2.88;;;;;;;0.03;100.00;100889.41;7393048;19;20141;-49
2022/02/13 07:37:25;;;;;;;8.93;3.42;;;;;;;0.04;100.00;100879.41;7393131;19;20190;-53
2022/02/13 07:39:55;;;;;;;8.77;4.55;;;;;;;0.12;100.00;100873.31;7391632;19;20159;-52
2022/02/13 07:42:24;;;;;;;7.57;3.60;;;;;;;0.04;100.00;100874.31;7389501;19;20688;-52
2022/02/13 07:44:54;;;;;;;5.60;2.42;;;;;;;0.03;100.00;100890.31;7395270;19;20127;-53
2022/02/13 07:47:24;;;;;;;15.70;4.80;;;;;;;0.12;100.00;100886.00;7391645;19;20183;-49
2022/02/13 07:49:54;;;;;;;40.22;12.60;;;;;;;0.25;100.00;100879.44;7390819;19;20214;-55
2022/02/13 07:52:26;;;;;;;56.17;18.83;;;;;;;0.29;100.00;100878.09;7388552;19;20752;-55
2022/02/13 07:54:55;;;;;;;7.10;2.45;;;;;;;0.25;100.00;100880.34;7395566;19;20143;-56
2022/02/13 07:57:25;;;;;;;12.50;5.28;;;;;;;0.38;100.00;100872.13;7389143;19;20194;-55
2022/02/13 07:59:54;;;;;;;27.10;11.68;;;;;;;0.42;100.00;100873.28;7391018;19;20163;-51
2022/02/13 08:02:24;;;;;;;13.60;5.15;;;;;;;0.47;100.00;100882.16;7388681;19;20531;-55
2022/02/13 08:04:53;;;;;;;9.85;4.30;;;;;;;0.51;100.00;100896.03;7392385;19;20123;-52
2022/02/13 08:07:25;;;;;;;11.65;3.50;;;;;;;0.43;100.00;100895.38;7388269;19;20190;-53
2022/02/13 08:09:55;;;;;;;9.82;3.63;;;;;;;0.49;100.00;100893.34;7395125;19;20166;-52
2022/02/13 08:12:24;;;;;;;8.02;3.70;;;;;;;0.58;100.00;100890.69;7394259;19;20194;-56
2022/02/13 08:14:54;;;;;;;9.32;3.17;;;;;;;0.59;100.00;100887.41;7399579;19;20494;-55
2022/02/13 08:17:26;;;;;;;11.02;3.70;;;;;;;0.63;100.00;100893.63;7393210;19;20186;-54
2022/02/13 08:20:05;;;;;;;22.30;5.50;;;;;;;0.72;100.00;100883.34;7393001;19;20229;-53
2022/02/13 08:22:38;;;;;;;9.45;3.25;;;;;;;0.77;100.00;100897.31;7398219;19;20141;-50
2022/02/13 08:25:11;;;;;;;7.40;3.97;;;;;;;0.83;100.00;100872.44;7399231;19;20130;-50
2022/02/13 08:27:40;;;;;;;6.32;2.90;;;;;;;0.89;100.00;100878.03;7398871;19;20611;-51
2022/02/13 08:30:12;;;;;;;11.35;3.45;;;;;;;0.96;100.00;100879.41;7393338;19;20168;-51
2022/02/13 08:32:41;;;;;;;14.93;6.00;;;;;;;1.06;100.00;100881.94;7398759;19;20134;-52
2022/02/13 08:35:11;;;;;;;10.63;5.35;;;;;;;1.22;100.00;100878.09;7397255;19;20491;-50
2022/02/13 08:37:43;;;;;;;8.90;3.53;;;;;;;1.27;100.00;100875.97;7398868;19;20588;-49
2022/02/13 08:40:14;;;;;;;8.82;3.97;;;;;;;1.35;100.00;100865.59;7393406;19;20163;-47
2022/02/13 08:42:43;;;;;;;9.85;3.42;;;;;;;1.36;100.00;100858.88;7397325;19;20199;-47
2022/02/13 08:45:13;;;;;;;9.95;2.60;;;;;;;1.47;100.00;100854.66;7395398;19;20190;-55
2022/02/13 08:47:42;;;;;;;9.55;4.15;;;;;;;1.56;100.00;100855.41;7402249;19;20134;-53
2022/02/13 08:50:12;;;;;;;11.13;3.50;;;;;;;1.61;100.00;100841.41;7394943;19;20166;-50
2022/02/13 08:52:44;;;;;;;8.00;4.10;;;;;;;1.77;100.00;100832.41;7396971;19;20134;-53
2022/02/13 08:55:14;;;;;;;7.97;3.42;;;;;;;1.86;100.00;100824.63;7397583;19;20741;-56
2022/02/13 08:57:44;;;;;;;7.50;2.90;;;;;;;1.91;100.00;100822.44;7397799;19;20127;-57
2022/02/13 09:00:15;;;;;;;9.30;3.47;;;;;;;1.88;100.00;100828.16;7392722;19;20411;-50
2022/02/13 09:02:45;;;;;;;8.37;3.83;;;;;;;2.15;100.00;100818.31;7397343;19;20718;-52
2022/02/13 09:05:16;;;;;;;10.25;4.22;;;;;;;2.22;100.00;100815.50;7394787;19;20387;-53
2022/02/13 09:07:48;;;;;;;10.43;5.13;;;;;;;2.37;100.00;100814.88;7398131;19;20150;-49
2022/02/13 09:10:19;;;;;;;4.93;2.33;;;;;;;2.28;100.00;100815.97;7392202;19;20423;-56
2022/02/13 09:12:48;;;;;;;7.80;4.27;;;;;;;2.36;100.00;100808.91;7398502;19;20392;-52
2022/02/13 09:15:20;;;;;;;13.10;4.63;;;;;;;2.46;100.00;100813.03;7394190;19;20387;-50
2022/02/13 09:17:50;;;;;;;9.43;4.27;;;;;;;2.38;100.00;100806.47;7397472;19;20921;-52
2022/02/13 09:20:19;;;;;;;11.33;3.40;;;;;;;2.40;100.00;100797.28;7391305;19;20428;-52
2022/02/13 09:22:52;;;;;;;8.83;3.63;;;;;;;2.58;100.00;100799.44;7396007;19;20922;-52
2022/02/13 09:25:22;;;;;;;12.00;4.53;;;;;;;2.77;100.00;100797.47;7393248;19;20447;-55
2022/02/13 09:27:51;;;;;;;10.00;4.03;;;;;;;2.81;100.00;100793.50;7397052;19;20471;-55
2022/02/13 09:30:21;;;;;;;38.10;15.90;;;;;;;2.89;100.00;100799.16;7389294;19;20437;-52
2022/02/13 09:32:50;;;;;;;11.63;3.90;;;;;;;2.89;100.00;100786.41;7397326;19;20387;-58
2022/02/13 09:35:20;;;;;;;13.90;4.50;;;;;;;2.75;100.00;100787.94;7393164;19;20472;-56
2022/02/13 09:37:52;;;;;;;26.30;11.80;;;;;;;3.02;100.00;100789.09;7396094;19;20394;-53
2022/02/13 09:40:22;;;;;;;8.97;4.07;;;;;;;2.93;100.00;100793.53;7395086;19;20409;-54
2022/02/13 09:42:52;;;;;;;8.07;2.63;;;;;;;2.77;100.00;100804.25;7397340;19;20388;-52
2022/02/13 09:45:22;;;;;;;10.23;3.37;;;;;;;2.84;100.00;100799.69;7394263;19;20877;-53
2022/02/13 09:47:51;;;;;;;16.23;3.03;;;;;;;2.97;100.00;100801.50;7396587;19;20410;-52
2022/02/13 09:50:21;;;;;;;9.17;3.60;;;;;;;2.96;100.00;100798.84;7388373;19;20423;-54
2022/02/13 09:52:54;;;;;;;9.23;3.70;;;;;;;3.15;100.00;100806.19;7392373;19;20419;-51
2022/02/13 09:55:25;;;;;;;4.53;1.77;;;;;;;3.15;100.00;100802.72;7387532;19;20402;-51
2022/02/13 09:58:04;;;;;;;7.67;4.30;;;;;;;3.23;100.00;100797.41;7394154;19;20394;-52
2022/02/13 10:00:52;;;;;;;7.70;3.10;;;;;;;3.25;100.00;100807.72;7388601;19;20550;-53
2022/02/13 10:03:23;;;;;;;4.60;2.17;;;;;;;3.20;100.00;100793.75;7393300;19;20380;-50
2022/02/13 10:05:53;;;;;;;6.10;2.50;;;;;;;3.16;100.00;100799.41;7390675;19;20426;-49
2022/02/13 10:08:37;;;;;;;8.87;2.27;;;;;;;3.16;100.00;100804.50;7392880;19;20918;-51
2022/02/13 10:11:17;;;;;;;6.13;2.47;;;;;;;3.17;100.00;100804.63;7391040;19;20406;-56
2022/02/13 10:13:54;;;;;;;4.13;2.10;;;;;;;3.17;100.00;100803.75;7393556;19;20392;-51
2022/02/13 10:16:27;;;;;;;4.63;1.63;;;;;;;3.21;100.00;100815.91;7389224;19;20741;-51
2022/02/13 10:18:59;;;;;;;11.20;4.50;;;;;;;3.19;100.00;100800.50;7394884;19;20427;-51
2022/02/13 10:21:44;;;;;;;7.40;2.93;;;;;;;3.15;100.00;100805.28;7389214;19;20407;-53
2022/02/13 10:24:27;;;;;;;9.10;3.00;;;;;;;3.33;100.00;100805.75;7397483;19;20928;-51
2022/02/13 10:27:11;;;;;;;5.60;2.37;;;;;;;3.34;100.00;100798.16;7390825;19;20490;-55
2022/02/13 10:29:43;;;;;;;5.63;2.90;;;;;;;3.27;100.00;100806.16;7391934;19;20434;-52
2022/02/13 10:32:18;;;;;;;6.70;2.93;;;;;;;3.23;100.00;100805.06;7388476;19;20978;-51
2022/02/13 10:35:08;;;;;;;12.83;3.60;;;;;;;3.31;100.00;100797.97;7393243;19;20388;-53
2022/02/13 10:37:42;;;;;;;10.17;4.40;;;;;;;3.41;100.00;100788.41;7389783;19;20777;-53
2022/02/13 10:40:17;;;;;;;10.43;3.70;;;;;;;3.46;100.00;100787.97;7389066;19;20418;-52
2022/02/13 10:42:46;;;;;;;5.30;2.50;;;;;;;3.33;100.00;100782.78;7392827;19;20385;-53
2022/02/13 10:45:27;;;;;;;5.27;2.10;;;;;;;3.22;100.00;100771.78;7384535;19;20388;-55
2022/02/13 10:47:59;;;;;;;4.67;2.13;;;;;;;3.40;100.00;100773.88;7393928;19;20391;-53
2022/02/13 10:50:30;;;;;;;11.53;3.90;;;;;;;3.51;100.00;100775.53;7388512;19;20403;-50
2022/02/13 10:53:01;;;;;;;6.70;2.33;;;;;;;3.47;100.00;100764.22;7393151;19;20727;-51
2022/02/13 10:55:35;;;;;;;5.27;2.17;;;;;;;3.46;100.00;100766.66;7389315;19;20426;-50
2022/02/13 10:58:06;;;;;;;8.17;3.80;;;;;;;3.49;100.00;100769.44;7397322;19;20402;-53
2022/02/13 11:00:37;;;;;;;9.37;3.37;;;;;;;3.52;100.00;100767.09;7387736;19;20421;-52
2022/02/13 11:03:08;;;;;;;7.73;4.53;;;;;;;3.74;100.00;100760.97;7393819;19;20387;-51
2022/02/13 11:05:40;;;;;;;7.27;2.90;;;;;;;3.74;100.00;100759.28;7389093;19;20938;-55
2022/02/13 11:08:12;;;;;;;5.43;3.10;;;;;;;3.76;100.00;100752.59;7393092;19;20467;-52
2022/02/13 11:10:47;;;;;;;6.93;2.60;;;;;;;3.85;100.00;100761.69;7388390;19;20439;-51
2022/02/13 11:13:17;;;;;;;11.90;3.33;;;;;;;3.72;100.00;100744.63;7394184;19;20380;-50
2022/02/13 11:15:47;;;;;;;7.20;3.90;;;;;;;3.81;100.00;100740.19;7388316;19;20425;-53
2022/02/13 11:18:19;;;;;;;6.83;2.87;;;;;;;3.82;100.00;100738.50;7392688;19;20387;-54
2022/02/13 11:20:49;;;;;;;5.33;2.73;;;;;;;3.89;100.00;100736.47;7388688;19;20414;-54
2022/02/13 11:23:23;;;;;;;8.57;4.27;;;;;;;3.89;100.00;100722.81;7392991;19;20390;-51
2022/02/13 11:25:57;;;;;;;11.83;4.13;;;;;;;4.06;100.00;100718.88;7391208;19;20423;-55
2022/02/13 11:28:28;;;;;;;7.20;2.80;;;;;;;3.99;100.00;100720.13;7392155;19;20384;-55
2022/02/13 11:30:59;;;;;;;4.53;2.60;;;;;;;4.04;100.00;100708.56;7387888;19;20411;-55
2022/02/13 11:33:45;;;;;;;8.10;3.97;;;;;;;4.15;100.00;100711.81;7393582;19;20395;-52
2022/02/13 11:36:15;;;;;;;8.93;3.50;;;;;;;4.13;100.00;100702.28;7388821;19;20494;-50
2022/02/13 11:38:55;;;;;;;6.67;3.07;;;;;;;4.29;100.00;100699.06;7392178;19;20400;-51